^^
Your Local Weather - Clay, NY Station Historical Data
Daily Summary for February 5, 2018 Units:  English    Metric   Both
« Previous Day
Next Day »
Daily Weekly Monthly Yearly Custom
  High: Low: Average:
Temperature: 32.0 °F 6.3 °F 17.8 °F
Dew Point: 30.2 °F 0.8 °F 11.4 °F
Humidity: 93% 55% 76%
Wind Speed: 7.0mph 0.0mph 2.6mph
Wind Gust: 12.0mph - -
Wind- - WNW
Pressure: 30.22 in 29.65 in -
Precipitation: 0.00 in    
Historical Graphs
 
 
Tabular Data for February 5, 2018
Time Temperature Dew Point Pressure Wind Wind Speed Wind Gust Humidity Rainfall Rate (Hourly) solar
00:04 30.0 °F 28.2 °F 29.65 in Calm     93% 0.00 in 0 W/m2
00:10 30.0 °F 28.2 °F 29.65 in Calm     93% 0.00 in 0 W/m2
00:16 30.1 °F 28.3 °F 29.65 in Calm     93% 0.00 in 0 W/m2
00:22 30.1 °F 28.3 °F 29.65 in Calm     93% 0.00 in 0 W/m2
00:28 30.2 °F 28.4 °F 29.65 in Calm     93% 0.00 in 0 W/m2
00:34 30.2 °F 28.4 °F 29.65 in Calm     93% 0.00 in 0 W/m2
00:40 30.3 °F 28.5 °F 29.65 in Calm     93% 0.00 in 0 W/m2
00:46 30.2 °F 28.4 °F 29.65 in Calm     93% 0.00 in 0 W/m2
00:52 30.3 °F 28.5 °F 29.65 in Calm     93% 0.00 in 0 W/m2
00:58 30.3 °F 28.5 °F 29.65 in Calm     93% 0.00 in 0 W/m2
01:04 30.3 °F 28.5 °F 29.65 in Calm     93% 0.00 in 0 W/m2
01:10 30.4 °F 28.6 °F 29.66 in Calm     93% 0.00 in 0 W/m2
01:16 30.8 °F 29.0 °F 29.66 in Calm     93% 0.00 in 0 W/m2
01:22 31.3 °F 29.5 °F 29.66 in Calm     93% 0.00 in 0 W/m2
01:28 31.7 °F 29.9 °F 29.66 in Calm     93% 0.00 in 0 W/m2
01:34 31.8 °F 30.0 °F 29.66 in Calm     93% 0.00 in 0 W/m2
01:40 32.0 °F 30.2 °F 29.67 in Calm     93% 0.00 in 0 W/m2
01:46 32.0 °F 30.2 °F 29.67 in Calm   2.0 mph 93% 0.00 in 0 W/m2
01:52 30.9 °F 29.1 °F 29.68 in NW 3.0 mph 6.0 mph 93% 0.00 in 0 W/m2
01:58 30.2 °F 28.4 °F 29.68 in West 5.0 mph 7.0 mph 93% 0.00 in 0 W/m2
02:04 29.6 °F 27.8 °F 29.69 in WNW 5.0 mph 8.0 mph 93% 0.00 in 0 W/m2
02:10 29.1 °F 27.3 °F 29.70 in WNW 4.0 mph 4.0 mph 93% 0.00 in 0 W/m2
02:16 28.8 °F 27.0 °F 29.70 in NW 4.0 mph 4.0 mph 93% 0.00 in 0 W/m2
02:22 28.5 °F 26.7 °F 29.70 in NW 4.0 mph 6.0 mph 93% 0.00 in 0 W/m2
02:28 28.4 °F 26.6 °F 29.71 in West 4.0 mph 6.0 mph 93% 0.00 in 0 W/m2
02:34 28.0 °F 26.0 °F 29.71 in NW 4.0 mph 4.0 mph 92% 0.00 in 0 W/m2
02:40 27.8 °F 26.0 °F 29.72 in West 4.0 mph 5.0 mph 93% 0.00 in 0 W/m2
02:46 27.7 °F 25.7 °F 29.73 in WNW 4.0 mph 5.0 mph 92% 0.00 in 0 W/m2
02:52 27.4 °F 25.4 °F 29.73 in WNW 4.0 mph 8.0 mph 92% 0.00 in 0 W/m2
02:58 27.2 °F 25.2 °F 29.74 in WNW 4.0 mph 8.0 mph 92% 0.00 in 0 W/m2
03:04 26.9 °F 24.9 °F 29.74 in WNW 4.0 mph 6.0 mph 92% 0.00 in 0 W/m2
03:10 26.7 °F 24.7 °F 29.75 in WNW 4.0 mph 5.0 mph 92% 0.00 in 0 W/m2
03:16 26.5 °F 24.5 °F 29.75 in WNW 4.0 mph 5.0 mph 92% 0.00 in 0 W/m2
03:22 26.3 °F 24.3 °F 29.76 in WNW 4.0 mph 10.0 mph 92% 0.00 in 0 W/m2
03:28 25.8 °F 23.5 °F 29.77 in West 5.0 mph 10.0 mph 91% 0.00 in 0 W/m2
03:34 25.4 °F 23.1 °F 29.77 in WNW 6.0 mph 7.0 mph 91% 0.00 in 0 W/m2
03:40 25.0 °F 22.7 °F 29.77 in WNW 6.0 mph 9.0 mph 91% 0.00 in 0 W/m2
03:46 24.5 °F 22.0 °F 29.78 in West 6.0 mph 9.0 mph 90% 0.00 in 0 W/m2
03:54 24.1 °F 21.6 °F 29.79 in West 6.0 mph 6.0 mph 90% 0.00 in 0 W/m2
04:00 24.0 °F 21.5 °F 29.79 in WNW 5.0 mph 7.0 mph 90% 0.00 in 0 W/m2
04:06 23.7 °F 21.2 °F 29.80 in WNW 5.0 mph 9.0 mph 90% 0.00 in 0 W/m2
04:12 23.3 °F 20.8 °F 29.81 in WNW 5.0 mph 7.0 mph 90% 0.00 in 0 W/m2
04:18 23.1 °F 20.6 °F 29.82 in NW 4.0 mph 7.0 mph 90% 0.00 in 0 W/m2
04:24 22.8 °F 20.3 °F 29.82 in WNW 5.0 mph 9.0 mph 90% 0.00 in 0 W/m2
04:30 22.7 °F 20.2 °F 29.82 in West 5.0 mph 5.0 mph 90% 0.00 in 0 W/m2
04:36 22.3 °F 19.6 °F 29.83 in West 5.0 mph 10.0 mph 89% 0.00 in 0 W/m2
04:42 22.1 °F 19.4 °F 29.84 in NW 5.0 mph 8.0 mph 89% 0.00 in 0 W/m2
04:48 21.9 °F 19.2 °F 29.84 in WNW 5.0 mph 8.0 mph 89% 0.00 in 0 W/m2
04:54 21.6 °F 18.9 °F 29.85 in NW 5.0 mph 9.0 mph 89% 0.00 in 0 W/m2
05:00 21.2 °F 18.5 °F 29.85 in WNW 4.0 mph 4.0 mph 89% 0.00 in 0 W/m2
05:06 21.0 °F 18.3 °F 29.86 in NW 4.0 mph 6.0 mph 89% 0.00 in 0 W/m2
05:12 20.8 °F 18.3 °F 29.87 in West 4.0 mph 7.0 mph 90% 0.00 in 0 W/m2
05:18 20.6 °F 18.1 °F 29.87 in WNW 4.0 mph 7.0 mph 90% 0.00 in 0 W/m2
05:24 20.4 °F 17.9 °F 29.88 in NW 4.0 mph 7.0 mph 90% 0.00 in 0 W/m2
05:30 20.3 °F 17.8 °F 29.89 in WNW 4.0 mph 4.0 mph 90% 0.00 in 0 W/m2
05:36 20.1 °F 17.6 °F 29.89 in WNW 4.0 mph 5.0 mph 90% 0.00 in 0 W/m2
05:42 20.0 °F 17.5 °F 29.90 in WNW 5.0 mph 5.0 mph 90% 0.00 in 0 W/m2
05:48 19.9 °F 17.4 °F 29.90 in NW 5.0 mph 6.0 mph 90% 0.00 in 0 W/m2
05:54 19.8 °F 17.3 °F 29.90 in West 4.0 mph 6.0 mph 90% 0.00 in 0 W/m2
06:00 19.6 °F 17.1 °F 29.91 in WNW 4.0 mph 8.0 mph 90% 0.00 in 0 W/m2
06:06 19.5 °F 16.8 °F 29.92 in NW 4.0 mph 8.0 mph 89% 0.00 in 0 W/m2
06:12 19.2 °F 16.5 °F 29.92 in WNW 4.0 mph 5.0 mph 89% 0.00 in 0 W/m2
06:18 19.1 °F 16.4 °F 29.93 in NW 4.0 mph 5.0 mph 89% 0.00 in 0 W/m2
06:24 19.0 °F 16.3 °F 29.94 in NNW 4.0 mph 4.0 mph 89% 0.00 in 0 W/m2
06:30 19.0 °F 16.3 °F 29.94 in WNW 4.0 mph 5.0 mph 89% 0.00 in 0 W/m2
06:36 18.9 °F 16.2 °F 29.95 in NW 3.0 mph 5.0 mph 89% 0.00 in 0 W/m2
06:42 18.7 °F 16.0 °F 29.95 in West 4.0 mph 6.0 mph 89% 0.00 in 0 W/m2
06:48 18.4 °F 15.4 °F 29.96 in West 5.0 mph 8.0 mph 88% 0.00 in 0 W/m2
06:54 18.2 °F 15.2 °F 29.97 in NW 5.0 mph 5.0 mph 88% 0.00 in 0 W/m2
07:00 18.0 °F 14.8 °F 29.98 in WNW 3.0 mph 5.0 mph 87% 0.00 in 0 W/m2
07:06 17.7 °F 14.2 °F 29.99 in West 4.0 mph 5.0 mph 86% 0.00 in 0 W/m2
07:12 17.4 °F 13.7 °F 30.00 in WNW 6.0 mph 6.0 mph 85% 0.00 in 0 W/m2
07:18 17.2 °F 12.9 °F 30.00 in West 5.0 mph 6.0 mph 83% 0.00 in 0 W/m2
07:24 17.0 °F 12.2 °F 30.01 in West 4.0 mph 5.0 mph 81% 0.00 in 0 W/m2
07:30 16.8 °F 11.7 °F 30.02 in WNW 4.0 mph 4.0 mph 80% 0.00 in 5 W/m2
07:36 16.6 °F 11.5 °F 30.03 in NW 5.0 mph 6.0 mph 80% 0.00 in 5 W/m2
07:42 16.5 °F 11.1 °F 30.03 in WNW 5.0 mph 7.0 mph 79% 0.00 in 7 W/m2
07:48 16.4 °F 11.0 °F 30.04 in WNW 5.0 mph 7.0 mph 79% 0.00 in 11 W/m2
07:54 16.2 °F 10.5 °F 30.04 in NW 5.0 mph 11.0 mph 78% 0.00 in 14 W/m2
08:00 15.9 °F 10.3 °F 30.05 in West 6.0 mph 6.0 mph 78% 0.00 in 18 W/m2
08:06 15.8 °F 10.2 °F 30.06 in WNW 5.0 mph 6.0 mph 78% 0.00 in 21 W/m2
08:12 15.7 °F 10.1 °F 30.06 in WNW 5.0 mph 6.0 mph 78% 0.00 in 21 W/m2
08:18 15.7 °F 10.1 °F 30.07 in WNW 4.0 mph 6.0 mph 78% 0.00 in 26 W/m2
08:24 15.4 °F 9.2 °F 30.08 in WNW 3.0 mph 7.0 mph 76% 0.00 in 30 W/m2
08:30 15.3 °F 9.1 °F 30.08 in NW 4.0 mph 4.0 mph 76% 0.00 in 39 W/m2
08:36 15.3 °F 8.8 °F 30.08 in NW 4.0 mph 7.0 mph 75% 0.00 in 28 W/m2
08:42 15.2 °F 9.0 °F 30.09 in WNW 3.0 mph 4.0 mph 76% 0.00 in 46 W/m2
08:48 15.1 °F 8.6 °F 30.09 in NW 3.0 mph 4.0 mph 75% 0.00 in 42 W/m2
08:54 15.0 °F 8.5 °F 30.09 in WNW 4.0 mph 7.0 mph 75% 0.00 in 53 W/m2
09:00 15.0 °F 8.5 °F 30.10 in NW 4.0 mph 4.0 mph 75% 0.00 in 100 W/m2
09:06 15.5 °F 9.0 °F 30.10 in WNW 4.0 mph 5.0 mph 75% 0.00 in 83 W/m2
09:12 15.5 °F 8.4 °F 30.10 in WNW 4.0 mph 4.0 mph 73% 0.00 in 49 W/m2
09:18 15.2 °F 7.8 °F 30.11 in WNW 4.0 mph 4.0 mph 72% 0.00 in 102 W/m2
09:24 15.5 °F 8.1 °F 30.11 in NW 4.0 mph 8.0 mph 72% 0.00 in 98 W/m2
09:30 15.4 °F 7.4 °F 30.11 in North 5.0 mph 5.0 mph 70% 0.00 in 42 W/m2
09:36 15.5 °F 7.5 °F 30.11 in NW 5.0 mph 6.0 mph 70% 0.00 in 102 W/m2
09:42 15.9 °F 7.5 °F 30.11 in WNW 4.0 mph 6.0 mph 69% 0.00 in 100 W/m2
09:48 16.2 °F 7.5 °F 30.12 in SW 4.0 mph 7.0 mph 68% 0.00 in 102 W/m2
09:54 16.5 °F 7.4 °F 30.12 in NW 4.0 mph 4.0 mph 67% 0.00 in 109 W/m2
10:00 16.3 °F 6.6 °F 30.12 in WNW 5.0 mph 5.0 mph 65% 0.00 in 111 W/m2
10:06 16.4 °F 6.0 °F 30.13 in WNW 6.0 mph 6.0 mph 63% 0.00 in 105 W/m2
10:12 16.6 °F 5.8 °F 30.14 in NW 5.0 mph 6.0 mph 62% 0.00 in 128 W/m2
10:18 16.4 °F 4.9 °F 30.14 in WNW 6.0 mph 12.0 mph 60% 0.00 in 63 W/m2
10:24 16.4 °F 4.9 °F 30.15 in North 6.0 mph 6.0 mph 60% 0.00 in 40 W/m2
10:30 16.8 °F 4.9 °F 30.16 in West 6.0 mph 9.0 mph 59% 0.00 in 118 W/m2
10:36 17.0 °F 4.4 °F 30.17 in NW 5.0 mph 9.0 mph 57% 0.00 in 118 W/m2
10:42 17.2 °F 4.6 °F 30.17 in West 5.0 mph 6.0 mph 57% 0.00 in 111 W/m2
10:48 17.5 °F 5.2 °F 30.17 in West 5.0 mph 12.0 mph 58% 0.00 in 107 W/m2
10:54 17.1 °F 4.5 °F 30.17 in NW 6.0 mph 6.0 mph 57% 0.00 in 107 W/m2
11:00 17.5 °F 5.2 °F 30.17 in WNW 6.0 mph 6.0 mph 58% 0.00 in 107 W/m2
11:06 17.4 °F 4.7 °F 30.18 in NW 6.0 mph 6.0 mph 57% 0.00 in 109 W/m2
11:12 17.5 °F 4.1 °F 30.17 in WNW 6.0 mph 6.0 mph 55% 0.00 in 102 W/m2
11:18 17.5 °F 4.5 °F 30.18 in West 6.0 mph 7.0 mph 56% 0.00 in 105 W/m2
11:24 17.6 °F 4.5 °F 30.18 in West 5.0 mph 11.0 mph 56% 0.00 in 102 W/m2
11:30 17.7 °F 4.6 °F 30.19 in WNW 5.0 mph 5.0 mph 56% 0.00 in 105 W/m2
11:36 17.4 °F 4.4 °F 30.19 in WNW 5.0 mph 5.0 mph 56% 0.00 in 139 W/m2
11:42 18.1 °F 5.8 °F 30.19 in WNW 5.0 mph 5.0 mph 58% 0.00 in 236 W/m2
11:48 19.5 °F 6.7 °F 30.19 in WNW 5.0 mph 5.0 mph 57% 0.00 in 306 W/m2
11:54 18.2 °F 4.7 °F 30.19 in WNW 6.0 mph 9.0 mph 55% 0.00 in 281 W/m2
12:00 17.5 °F 5.6 °F 30.19 in WNW 7.0 mph 7.0 mph 59% 0.00 in 374 W/m2
12:06 17.9 °F 6.3 °F 30.19 in WNW 6.0 mph 8.0 mph 60% 0.00 in 729 W/m2
12:12 19.2 °F 7.2 °F 30.19 in NW 5.0 mph 6.0 mph 59% 0.00 in 772 W/m2
12:18 18.8 °F 6.8 °F 30.19 in NW 5.0 mph 7.0 mph 59% 0.00 in 536 W/m2
12:24 18.3 °F 7.4 °F 30.19 in NW 5.0 mph 5.0 mph 62% 0.00 in 311 W/m2
12:30 17.7 °F 7.6 °F 30.19 in NW 5.0 mph 5.0 mph 64% 0.00 in 281 W/m2
12:36 17.5 °F 7.4 °F 30.19 in WNW 4.0 mph 5.0 mph 64% 0.00 in 311 W/m2
12:42 17.8 °F 8.0 °F 30.19 in NW 4.0 mph 7.0 mph 65% 0.00 in 292 W/m2
12:48 18.0 °F 8.5 °F 30.18 in NW 3.0 mph 7.0 mph 66% 0.00 in 302 W/m2
12:54 17.5 °F 8.4 °F 30.18 in NW 3.0 mph 6.0 mph 67% 0.00 in 287 W/m2
13:00 18.0 °F 9.5 °F 30.18 in NNW 3.0 mph 3.0 mph 69% 0.00 in 334 W/m2
13:06 18.3 °F 9.2 °F 30.18 in NNW 3.0 mph 3.0 mph 67% 0.00 in 290 W/m2
13:12 18.1 °F 9.0 °F 30.18 in WNW 2.0 mph 3.0 mph 67% 0.00 in 271 W/m2
13:18 18.2 °F 9.4 °F 30.17 in WNW 2.0 mph 3.0 mph 68% 0.00 in 295 W/m2
13:24 18.1 °F 9.3 °F 30.17 in WNW 2.0 mph 3.0 mph 68% 0.00 in 306 W/m2
13:30 17.9 °F 9.4 °F 30.17 in WSW 2.0 mph 2.0 mph 69% 0.00 in 267 W/m2
13:36 18.2 °F 9.7 °F 30.17 in NNW 1.0 mph 2.0 mph 69% 0.00 in 248 W/m2
13:42 18.2 °F 10.1 °F 30.16 in WSW 2.0 mph 3.0 mph 70% 0.00 in 239 W/m2
13:48 18.1 °F 10.3 °F 30.15 in WSW 1.0 mph 3.0 mph 71% 0.00 in 214 W/m2
13:54 17.9 °F 10.1 °F 30.15 in WSW 1.0 mph 2.0 mph 71% 0.00 in 197 W/m2
14:00 17.9 °F 10.1 °F 30.15 in WSW 1.0 mph 1.0 mph 71% 0.00 in 246 W/m2
14:06 18.8 °F 11.3 °F 30.15 in Calm   2.0 mph 72% 0.00 in 260 W/m2
14:12 18.7 °F 10.9 °F 30.15 in WNW 1.0 mph 3.0 mph 71% 0.00 in 248 W/m2
14:18 18.8 °F 11.6 °F 30.15 in WNW 1.0 mph 3.0 mph 73% 0.00 in 269 W/m2
14:24 19.0 °F 11.5 °F 30.15 in WNW 1.0 mph 2.0 mph 72% 0.00 in 183 W/m2
14:30 19.6 °F 12.0 °F 30.16 in WNW 2.0 mph 2.0 mph 72% 0.00 in 619 W/m2
14:36 19.8 °F 11.3 °F 30.16 in WNW 3.0 mph 4.0 mph 69% 0.00 in 230 W/m2
14:42 19.3 °F 10.5 °F 30.16 in WSW 3.0 mph 3.0 mph 68% 0.00 in 223 W/m2
14:48 19.8 °F 11.3 °F 30.16 in WNW 3.0 mph 4.0 mph 69% 0.00 in 380 W/m2
14:54 20.7 °F 11.5 °F 30.16 in WNW 3.0 mph 5.0 mph 67% 0.00 in 288 W/m2
15:00 20.0 °F 10.5 °F 30.15 in WSW 4.0 mph 5.0 mph 66% 0.00 in 369 W/m2
15:06 20.1 °F 9.9 °F 30.16 in NW 3.0 mph 5.0 mph 64% 0.00 in 197 W/m2
15:12 20.2 °F 11.0 °F 30.16 in SW 3.0 mph 3.0 mph 67% 0.00 in 492 W/m2
15:18 21.5 °F 12.2 °F 30.16 in WSW 2.0 mph 3.0 mph 67% 0.00 in 457 W/m2
15:24 21.4 °F 11.5 °F 30.16 in WSW 2.0 mph 7.0 mph 65% 0.00 in 193 W/m2
15:30 20.5 °F 8.0 °F 30.16 in SW 4.0 mph 5.0 mph 58% 0.00 in 144 W/m2
15:36 20.5 °F 8.4 °F 30.17 in West 4.0 mph 5.0 mph 59% 0.00 in 148 W/m2
15:42 20.9 °F 8.4 °F 30.16 in West 2.0 mph 2.0 mph 58% 0.00 in 362 W/m2
15:48 21.4 °F 8.5 °F 30.16 in NW 2.0 mph 2.0 mph 57% 0.00 in 267 W/m2
15:54 21.8 °F 8.9 °F 30.16 in West 3.0 mph 5.0 mph 57% 0.00 in 332 W/m2
16:04 21.4 °F 7.7 °F 30.16 in WSW 4.0 mph 4.0 mph 55% 0.00 in 294 W/m2
16:10 21.3 °F 7.6 °F 30.16 in WSW 4.0 mph 4.0 mph 55% 0.00 in 58 W/m2
16:16 20.9 °F 7.2 °F 30.16 in WSW 3.0 mph 7.0 mph 55% 0.00 in 44 W/m2
16:22 20.6 °F 7.0 °F 30.16 in West 3.0 mph 3.0 mph 55% 0.00 in 35 W/m2
16:28 20.4 °F 6.8 °F 30.17 in WSW 2.0 mph 3.0 mph 55% 0.00 in 28 W/m2
16:36 20.0 °F 6.8 °F 30.16 in WSW 3.0 mph 3.0 mph 56% 0.00 in 25 W/m2
16:44 19.7 °F 6.5 °F 30.16 in SW 3.0 mph 3.0 mph 56% 0.00 in 21 W/m2
16:50 19.5 °F 6.3 °F 30.17 in West 2.0 mph 2.0 mph 56% 0.00 in 19 W/m2
16:56 19.4 °F 6.2 °F 30.17 in West 2.0 mph 3.0 mph 56% 0.00 in 18 W/m2
17:02 19.2 °F 6.4 °F 30.17 in West 1.0 mph 1.0 mph 57% 0.00 in 14 W/m2
17:08 18.9 °F 6.2 °F 30.17 in Calm   1.0 mph 57% 0.00 in 12 W/m2
17:14 18.6 °F 6.3 °F 30.17 in Calm     58% 0.00 in 9 W/m2
17:20 18.2 °F 6.3 °F 30.17 in Calm     59% 0.00 in 7 W/m2
17:26 17.9 °F 6.0 °F 30.19 in Calm     59% 0.00 in 0 W/m2
17:32 17.7 °F 6.2 °F 30.19 in Calm     60% 0.00 in 0 W/m2
17:38 17.2 °F 6.0 °F 30.19 in Calm     61% 0.00 in 0 W/m2
17:44 16.6 °F 5.5 °F 30.19 in Calm     61% 0.00 in 0 W/m2
17:50 15.7 °F 5.3 °F 30.19 in Calm     63% 0.00 in 0 W/m2
17:56 14.7 °F 5.1 °F 30.19 in Calm     65% 0.00 in 0 W/m2
18:02 13.8 °F 4.5 °F 30.19 in Calm     66% 0.00 in 0 W/m2
18:08 13.3 °F 4.4 °F 30.19 in Calm     67% 0.00 in 0 W/m2
18:14 13.0 °F 4.4 °F 30.20 in Calm     68% 0.00 in 0 W/m2
18:20 12.6 °F 4.3 °F 30.20 in Calm     69% 0.00 in 0 W/m2
18:26 12.2 °F 4.3 °F 30.20 in Calm     70% 0.00 in 0 W/m2
18:32 11.7 °F 3.8 °F 30.20 in Calm     70% 0.00 in 0 W/m2
18:38 11.2 °F 3.6 °F 30.20 in Calm     71% 0.00 in 0 W/m2
18:44 10.9 °F 3.3 °F 30.21 in Calm     71% 0.00 in 0 W/m2
18:50 10.5 °F 3.3 °F 30.22 in Calm     72% 0.00 in 0 W/m2
18:56 10.2 °F 3.0 °F 30.21 in Calm     72% 0.00 in 0 W/m2
19:02 10.0 °F 3.1 °F 30.21 in Calm     73% 0.00 in 0 W/m2
19:08 9.7 °F 2.8 °F 30.21 in Calm     73% 0.00 in 0 W/m2
19:14 9.4 °F 2.5 °F 30.21 in Calm     73% 0.00 in 0 W/m2
19:20 8.9 °F 2.0 °F 30.22 in Calm     73% 0.00 in 0 W/m2
19:26 8.5 °F 1.9 °F 30.22 in Calm     74% 0.00 in 0 W/m2
19:32 8.2 °F 1.6 °F 30.22 in Calm     74% 0.00 in 0 W/m2
19:38 8.3 °F 2.0 °F 30.21 in Calm     75% 0.00 in 0 W/m2
19:44 8.1 °F 1.8 °F 30.21 in Calm     75% 0.00 in 0 W/m2
19:50 7.8 °F 1.8 °F 30.21 in Calm     76% 0.00 in 0 W/m2
19:56 7.3 °F 1.3 °F 30.21 in Calm     76% 0.00 in 0 W/m2
20:02 7.0 °F 1.3 °F 30.21 in Calm     77% 0.00 in 0 W/m2
20:08 6.6 °F 0.9 °F 30.21 in Calm     77% 0.00 in 0 W/m2
20:14 6.5 °F 0.8 °F 30.21 in Calm     77% 0.00 in 0 W/m2
20:20 6.3 °F 0.9 °F 30.21 in Calm     78% 0.00 in 0 W/m2
20:26 6.3 °F 0.9 °F 30.22 in Calm     78% 0.00 in 0 W/m2
20:32 6.3 °F 1.2 °F 30.22 in Calm     79% 0.00 in 0 W/m2
20:38 6.4 °F 1.3 °F 30.22 in Calm     79% 0.00 in 0 W/m2
20:44 6.7 °F 1.8 °F 30.22 in Calm     80% 0.00 in 0 W/m2
20:52 6.7 °F 1.8 °F 30.21 in Calm     80% 0.00 in 0 W/m2
20:58 6.7 °F 1.8 °F 30.21 in Calm     80% 0.00 in 0 W/m2
21:04 6.7 °F 1.8 °F 30.21 in Calm     80% 0.00 in 0 W/m2
21:10 6.9 °F 2.0 °F 30.22 in Calm     80% 0.00 in 0 W/m2
21:16 7.0 °F 2.1 °F 30.22 in Calm     80% 0.00 in 0 W/m2
21:22 7.2 °F 2.6 °F 30.22 in Calm     81% 0.00 in 0 W/m2
21:28 7.3 °F 2.7 °F 30.22 in Calm     81% 0.00 in 0 W/m2
21:34 7.6 °F 3.0 °F 30.22 in Calm     81% 0.00 in 0 W/m2
21:40 8.0 °F 3.4 °F 30.22 in Calm     81% 0.00 in 0 W/m2
21:46 8.1 °F 3.5 °F 30.22 in Calm     81% 0.00 in 0 W/m2
21:52 8.0 °F 3.4 °F 30.22 in Calm     81% 0.00 in 0 W/m2
21:58 7.9 °F 3.3 °F 30.22 in Calm     81% 0.00 in 0 W/m2
22:04 7.9 °F 3.3 °F 30.22 in Calm     81% 0.00 in 0 W/m2
22:10 7.8 °F 3.4 °F 30.21 in Calm     82% 0.00 in 0 W/m2
22:16 7.8 °F 3.4 °F 30.21 in Calm     82% 0.00 in 0 W/m2
22:22 7.8 °F 3.4 °F 30.21 in Calm     82% 0.00 in 0 W/m2
22:28 7.8 °F 3.4 °F 30.21 in Calm     82% 0.00 in 0 W/m2
22:34 8.0 °F 3.6 °F 30.21 in Calm     82% 0.00 in 0 W/m2
22:40 8.8 °F 4.7 °F 30.21 in Calm     83% 0.00 in 0 W/m2
22:46 9.7 °F 5.6 °F 30.21 in Calm     83% 0.00 in 0 W/m2
22:52 10.1 °F 6.0 °F 30.21 in Calm     83% 0.00 in 0 W/m2
22:58 10.2 °F 6.1 °F 30.21 in Calm     83% 0.00 in 0 W/m2
23:06 10.5 °F 6.6 °F 30.21 in Calm     84% 0.00 in 0 W/m2
23:12 10.7 °F 6.6 °F 30.21 in Calm     83% 0.00 in 0 W/m2
23:18 11.0 °F 7.1 °F 30.21 in Calm     84% 0.00 in 0 W/m2
23:24 11.1 °F 7.2 °F 30.22 in Calm     84% 0.00 in 0 W/m2
23:30 11.5 °F 7.3 °F 30.22 in Calm     83% 0.00 in 0 W/m2
23:36 11.8 °F 7.6 °F 30.21 in Calm     83% 0.00 in 0 W/m2
23:42 12.0 °F 7.8 °F 30.21 in Calm     83% 0.00 in 0 W/m2
23:48 12.1 °F 7.9 °F 30.21 in Calm     83% 0.00 in 0 W/m2
23:54 12.2 °F 8.0 °F 30.22 in Calm     83% 0.00 in 0 W/m2
Country Meadow, Clay, NY, USA
Compliments of Weather Underground - 2 mb